Time;durP1;ratioP1;P1;durP2;ratioP2;P2;SDS_P1;SDS_P2;PMS_P1;PMS_P2;Temp;Humidity;BMP_temperature;BMP_pressure;BME280_temperature;BME280_humidity;BME280_pressure;Samples;Min_cycle;Max_cycle;Signal;HPM_P1;HPM_P2
2023/08/02 00:00:03;;;;;;;2.97;1.92;;;;;;;-145.00;68.67;72809.78;5009858;28;20042;-75
2023/08/02 00:02:30;;;;;;;3.08;1.67;;;;;;;-145.00;68.98;72816.03;5009318;28;20057;-75
2023/08/02 00:04:58;;;;;;;3.42;1.85;;;;;;;-145.00;68.14;72805.63;5010124;28;20046;-75
2023/08/02 00:07:24;;;;;;;2.58;1.65;;;;;;;-145.00;68.71;72834.78;5017449;28;20048;-75
2023/08/02 00:09:51;;;;;;;4.82;2.03;;;;;;;-145.00;68.06;72813.94;5026861;28;20049;-75
2023/08/02 00:12:18;;;;;;;4.15;1.45;;;;;;;-145.00;68.39;72830.59;5044942;28;20117;-76
2023/08/02 00:14:44;;;;;;;3.63;1.77;;;;;;;-145.00;68.53;72832.69;5015017;28;20053;-76
2023/08/02 00:17:11;;;;;;;3.70;1.60;;;;;;;-145.00;67.50;72793.13;5020738;28;20061;-75
2023/08/02 00:19:38;;;;;;;3.38;1.70;;;;;;;-145.00;67.37;72801.47;5036231;28;20497;-75
2023/08/02 00:22:06;;;;;;;2.75;1.83;;;;;;;-145.00;66.90;72811.88;5050186;28;20049;-75
2023/08/02 00:24:32;;;;;;;5.07;1.83;;;;;;;-145.00;66.69;72816.03;5034015;28;20052;-75
2023/08/02 00:26:59;;;;;;;2.97;1.85;;;;;;;-145.00;67.32;72836.84;5030155;28;20041;-75
2023/08/02 00:29:25;;;;;;;2.97;1.77;;;;;;;-145.00;67.68;72841.00;5014893;28;20046;-75
2023/08/02 00:31:52;;;;;;;1.77;1.25;;;;;;;-145.00;66.78;72813.94;5015540;28;20050;-76
2023/08/02 00:34:18;;;;;;;2.40;1.52;;;;;;;-145.00;67.34;72843.09;5014933;28;20045;-75
2023/08/02 00:36:45;;;;;;;3.30;2.00;;;;;;;-145.00;65.74;72799.38;5015035;28;20064;-75
2023/08/02 00:39:13;;;;;;;2.83;1.67;;;;;;;-145.00;66.08;72813.94;5034873;28;20508;-75
2023/08/02 00:41:39;;;;;;;1.77;1.50;;;;;;;-145.00;65.58;72818.13;5054860;28;20051;-75
2023/08/02 00:44:06;;;;;;;2.38;1.45;;;;;;;-145.00;66.22;72847.25;5053080;28;20048;-75
2023/08/02 00:46:34;;;;;;;2.75;1.70;;;;;;;-145.00;66.75;72863.91;5051650;28;20049;-75
2023/08/02 00:49:00;;;;;;;4.88;1.90;;;;;;;-145.00;65.68;72832.69;5022342;28;20702;-75
2023/08/02 00:51:30;;;;;;;2.65;1.77;;;;;;;-145.00;65.33;72843.09;5033153;28;20044;-76
2023/08/02 00:54:00;;;;;;;2.67;1.83;;;;;;;-145.00;64.79;72822.28;5033633;28;20452;-74
2023/08/02 00:56:29;;;;;;;5.18;1.90;;;;;;;-145.00;63.96;72809.78;5033120;28;20057;-75
2023/08/02 00:58:59;;;;;;;3.15;1.60;;;;;;;-145.00;64.11;72807.72;5026298;28;20129;-75
2023/08/02 01:01:27;;;;;;;4.60;1.98;;;;;;;-145.00;63.38;72793.13;5013251;28;20046;-75
2023/08/02 01:03:54;;;;;;;3.90;1.85;;;;;;;-145.00;63.04;72780.66;5013322;28;20050;-75
2023/08/02 01:06:24;;;;;;;4.57;1.73;;;;;;;-145.00;64.08;72824.38;5032444;28;20049;-76
2023/08/02 01:08:55;;;;;;;2.75;1.65;;;;;;;-145.00;63.75;72809.78;5033410;28;20045;-75
2023/08/02 01:11:27;;;;;;;3.35;1.92;;;;;;;-145.00;63.67;72822.28;5044063;28;20060;-74
2023/08/02 01:13:57;;;;;;;3.65;1.25;;;;;;;-145.00;64.30;72834.78;5033096;28;20409;-76
2023/08/02 01:16:25;;;;;;;2.50;1.67;;;;;;;-145.00;64.26;72832.69;5032399;28;20052;-76
2023/08/02 01:18:52;;;;;;;4.40;1.70;;;;;;;-145.00;64.56;72843.09;5029112;28;20053;-75
2023/08/02 01:21:20;;;;;;;2.53;1.85;;;;;;;-145.00;64.70;72853.50;5031605;28;20049;-75
2023/08/02 01:23:46;;;;;;;4.07;1.90;;;;;;;-145.00;63.99;72834.78;5032586;28;20055;-75
2023/08/02 01:26:14;;;;;;;3.92;1.90;;;;;;;-145.00;64.68;72855.59;5032732;28;20045;-75
2023/08/02 01:28:46;;;;;;;3.72;1.75;;;;;;;-145.00;63.54;72820.19;5032679;28;20412;-75
2023/08/02 01:31:16;;;;;;;4.07;2.00;;;;;;;-145.00;63.55;72818.13;5032651;28;20107;-75
2023/08/02 01:33:51;;;;;;;3.05;1.90;;;;;;;-145.00;63.61;72826.44;5035576;28;20038;-76
2023/08/02 01:36:18;;;;;;;3.70;1.77;;;;;;;-145.00;62.70;72801.47;5037206;28;20137;-75
2023/08/02 01:38:51;;;;;;;4.38;2.00;;;;;;;-145.00;62.47;72778.56;5035005;28;20056;-76
2023/08/02 01:41:18;;;;;;;5.18;2.60;;;;;;;-145.00;62.23;72759.81;5055086;28;20619;-76
2023/08/02 01:43:45;;;;;;;2.42;1.85;;;;;;;-145.00;61.94;72745.25;5056140;28;20382;-75
2023/08/02 01:46:12;;;;;;;2.85;1.98;;;;;;;-145.00;61.91;72743.19;5046311;28;20056;-75
2023/08/02 01:48:40;;;;;;;4.07;1.90;;;;;;;-145.00;61.40;72747.34;5036195;28;20132;-75
2023/08/02 01:51:07;;;;;;;2.92;1.90;;;;;;;-145.00;61.19;72747.34;5019526;28;20046;-75
2023/08/02 01:53:33;;;;;;;3.33;1.85;;;;;;;-145.00;61.03;72734.84;5021519;28;20041;-75
2023/08/02 01:56:01;;;;;;;2.63;1.70;;;;;;;-145.00;60.81;72726.53;5036485;28;20049;-76
2023/08/02 01:58:29;;;;;;;3.47;1.67;;;;;;;-145.00;60.62;72711.94;5030477;28;20048;-75
2023/08/02 02:00:56;;;;;;;2.53;1.85;;;;;;;-145.00;60.82;72714.03;5015999;28;20104;-75
2023/08/02 02:03:22;;;;;;;3.15;1.80;;;;;;;-145.00;60.38;72705.69;5016052;28;20066;-75
2023/08/02 02:05:53;;;;;;;2.67;1.65;;;;;;;-145.00;60.52;72699.47;5015498;28;20068;-75
2023/08/02 02:08:20;;;;;;;2.72;1.70;;;;;;;-145.00;60.94;72695.28;5005294;28;20049;-75
2023/08/02 02:10:50;;;;;;;3.30;1.90;;;;;;;-145.00;61.14;72707.78;5046251;28;20128;-75
2023/08/02 02:13:19;;;;;;;3.22;1.70;;;;;;;-145.00;60.70;72699.47;5052179;28;20057;-76
2023/08/02 02:15:47;;;;;;;2.85;1.92;;;;;;;-145.00;61.03;72714.03;5052526;28;20562;-75
2023/08/02 02:18:13;;;;;;;4.43;2.17;;;;;;;-145.00;60.99;72709.88;5042715;28;20057;-75
2023/08/02 02:20:40;;;;;;;3.13;1.95;;;;;;;-145.00;61.19;72705.69;5031752;28;20045;-75
2023/08/02 02:23:06;;;;;;;3.72;1.98;;;;;;;-145.00;61.36;72714.03;5031625;28;20521;-75
2023/08/02 02:25:33;;;;;;;2.83;2.08;;;;;;;-145.00;61.28;72714.03;5031919;28;20042;-75
2023/08/02 02:27:59;;;;;;;3.53;2.00;;;;;;;-145.00;61.83;72739.00;5031445;28;20049;-75
2023/08/02 02:30:27;;;;;;;6.65;2.40;;;;;;;-145.00;62.00;72755.66;5038088;28;20048;-75
2023/08/02 02:32:54;;;;;;;3.65;1.83;;;;;;;-145.00;61.70;72743.19;5050865;28;20049;-75
2023/08/02 02:35:20;;;;;;;3.63;1.92;;;;;;;-145.00;61.71;72728.59;5049709;28;20052;-75
2023/08/02 02:37:47;;;;;;;5.50;2.22;;;;;;;-145.00;61.38;72722.34;5017856;28;20046;-75
2023/08/02 02:40:13;;;;;;;2.95;1.67;;;;;;;-145.00;61.59;72711.94;5044846;28;20041;-74
2023/08/02 02:42:40;;;;;;;3.15;1.88;;;;;;;-145.00;61.61;72714.03;5051266;28;20040;-76
2023/08/02 02:45:08;;;;;;;2.95;1.90;;;;;;;-145.00;61.75;72718.19;5030737;28;20046;-75
2023/08/02 02:47:36;;;;;;;3.65;1.75;;;;;;;-145.00;61.65;72714.03;5030096;28;20042;-75
2023/08/02 02:50:03;;;;;;;3.40;2.03;;;;;;;-145.00;61.66;72716.13;5010989;28;20054;-74
2023/08/02 02:52:29;;;;;;;3.28;1.92;;;;;;;-145.00;62.14;72728.59;5002033;28;20509;-75
2023/08/02 02:54:55;;;;;;;3.53;1.88;;;;;;;-145.00;61.93;72722.34;5010951;28;20053;-75
2023/08/02 02:57:22;;;;;;;3.75;2.13;;;;;;;-145.00;61.90;72726.53;5010683;28;20054;-77
2023/08/02 02:59:48;;;;;;;3.70;2.08;;;;;;;-145.00;61.84;72718.19;5030245;28;20529;-75
2023/08/02 03:02:15;;;;;;;6.03;2.85;;;;;;;-145.00;61.78;72714.03;5030854;28;20059;-75
2023/08/02 03:04:43;;;;;;;5.28;2.05;;;;;;;-145.00;62.21;72718.19;5031318;28;20046;-75
2023/08/02 03:07:09;;;;;;;4.18;2.20;;;;;;;-145.00;62.16;72724.44;5030235;28;20436;-76
2023/08/02 03:09:36;;;;;;;4.28;2.00;;;;;;;-145.00;62.16;72739.00;5038961;28;20041;-75
2023/08/02 03:12:02;;;;;;;3.55;1.90;;;;;;;-145.00;62.40;72745.25;5049929;28;20048;-75
2023/08/02 03:14:29;;;;;;;3.75;2.38;;;;;;;-145.00;62.44;72753.59;5050789;28;20411;-75
2023/08/02 03:16:55;;;;;;;4.15;2.17;;;;;;;-145.00;62.86;72764.00;5050796;28;20048;-75
2023/08/02 03:19:22;;;;;;;4.72;1.95;;;;;;;-145.00;63.21;72772.31;5019405;28;20056;-75
2023/08/02 03:21:49;;;;;;;6.50;2.63;;;;;;;-145.00;63.50;72772.31;5010811;28;20711;-75
2023/08/02 03:24:16;;;;;;;4.65;2.00;;;;;;;-145.00;63.68;72768.16;5010489;28;20057;-75
2023/08/02 03:26:42;;;;;;;4.68;2.10;;;;;;;-145.00;63.75;72772.31;5010919;28;20058;-74
2023/08/02 03:29:09;;;;;;;3.88;2.00;;;;;;;-145.00;63.96;72768.16;5011010;28;20501;-75
2023/08/02 03:31:35;;;;;;;3.35;2.20;;;;;;;-145.00;63.85;72776.47;5014100;28;20051;-75
2023/08/02 03:34:02;;;;;;;3.70;2.08;;;;;;;-145.00;63.81;72780.66;5010742;28;20046;-75
2023/08/02 03:36:28;;;;;;;4.82;2.25;;;;;;;-145.00;64.00;72784.81;5010822;28;20489;-75
2023/08/02 03:38:56;;;;;;;3.22;2.00;;;;;;;-145.00;64.10;72784.81;5032436;28;20052;-75
2023/08/02 03:41:23;;;;;;;4.32;1.88;;;;;;;-145.00;64.39;72788.97;5045992;28;20044;-76
2023/08/02 03:43:49;;;;;;;3.95;2.10;;;;;;;-145.00;64.47;72793.13;5011232;28;20409;-75
2023/08/02 03:46:16;;;;;;;6.85;2.45;;;;;;;-145.00;64.55;72793.13;5011195;28;20053;-76
2023/08/02 03:48:42;;;;;;;4.05;2.10;;;;;;;-145.00;64.34;72788.97;5011708;28;20124;-75
2023/08/02 03:51:09;;;;;;;4.40;2.22;;;;;;;-145.00;64.22;72788.97;5011018;28;20046;-75
2023/08/02 03:53:35;;;;;;;4.03;2.60;;;;;;;-145.00;64.56;72801.47;5011608;28;20058;-75
2023/08/02 03:56:04;;;;;;;4.20;2.50;;;;;;;-145.00;64.59;72797.31;5011236;28;20050;-74
2023/08/02 03:58:30;;;;;;;5.93;2.55;;;;;;;-145.00;64.39;72793.13;5011486;28;20500;-75
2023/08/02 04:00:57;;;;;;;3.15;2.00;;;;;;;-145.00;64.27;72799.38;5011116;28;20046;-74
2023/08/02 04:03:23;;;;;;;4.45;2.05;;;;;;;-145.00;64.29;72805.63;5010555;28;20056;-75
2023/08/02 04:05:49;;;;;;;4.68;2.53;;;;;;;-145.00;64.33;72797.31;5010363;28;20054;-75
2023/08/02 04:08:16;;;;;;;3.03;2.10;;;;;;;-145.00;64.34;72795.22;5020875;28;20044;-75
2023/08/02 04:10:43;;;;;;;4.85;2.33;;;;;;;-145.00;64.45;72801.47;5048324;28;20527;-75
2023/08/02 04:13:10;;;;;;;3.78;2.20;;;;;;;-145.00;64.20;72805.63;5017795;28;20046;-76
2023/08/02 04:15:37;;;;;;;6.68;2.33;;;;;;;-145.00;64.48;72801.47;5010320;28;20046;-75
2023/08/02 04:18:04;;;;;;;4.60;2.35;;;;;;;-145.00;64.18;72805.63;5025678;28;20046;-75
2023/08/02 04:20:31;;;;;;;4.47;2.20;;;;;;;-145.00;64.30;72801.47;5030575;28;20046;-75
2023/08/02 04:22:57;;;;;;;5.80;2.17;;;;;;;-145.00;64.38;72793.13;5029852;28;20493;-75
2023/08/02 04:25:24;;;;;;;5.40;2.33;;;;;;;-145.00;64.38;72793.13;5029752;28;20045;-75
2023/08/02 04:27:50;;;;;;;2.53;1.88;;;;;;;-145.00;64.33;72791.06;5030001;28;20053;-76
2023/08/02 04:30:18;;;;;;;5.25;2.50;;;;;;;-145.00;64.06;72780.66;5046201;28;20043;-75
2023/08/02 04:32:45;;;;;;;4.00;2.28;;;;;;;-145.00;64.08;72772.31;5038080;28;20053;-74
2023/08/02 04:35:11;;;;;;;4.18;2.22;;;;;;;-145.00;63.87;72776.47;5029164;28;20057;-74
2023/08/02 04:37:37;;;;;;;5.72;2.47;;;;;;;-145.00;63.94;72780.66;5029408;28;20041;-75
2023/08/02 04:40:05;;;;;;;3.63;1.90;;;;;;;-145.00;63.62;72776.47;5043454;28;20049;-74
2023/08/02 04:42:31;;;;;;;5.30;2.30;;;;;;;-145.00;63.67;72774.41;5048407;28;20044;-74
2023/08/02 04:44:58;;;;;;;6.05;2.53;;;;;;;-145.00;63.04;72772.31;5048242;28;20385;-74
2023/08/02 04:47:26;;;;;;;4.97;2.17;;;;;;;-145.00;63.27;72764.00;5048310;28;20045;-74
2023/08/02 04:49:53;;;;;;;4.43;2.15;;;;;;;-145.00;62.97;72759.81;5049273;28;20431;-73
2023/08/02 04:52:20;;;;;;;3.30;1.98;;;;;;;-145.00;63.27;72749.41;5049174;28;20478;-73
2023/08/02 04:54:46;;;;;;;3.55;1.88;;;;;;;-145.00;62.92;72724.44;5048766;28;20049;-73
2023/08/02 04:57:13;;;;;;;3.88;1.70;;;;;;;-145.00;62.64;72718.19;5051471;28;20056;-73
2023/08/02 04:59:39;;;;;;;3.90;2.17;;;;;;;-145.00;62.63;72709.88;5052681;28;20041;-73
2023/08/02 05:02:06;;;;;;;3.60;2.22;;;;;;;-145.00;62.57;72697.38;5052227;28;20056;-73
2023/08/02 05:04:34;;;;;;;3.90;2.60;;;;;;;-145.00;61.63;72697.38;5047491;28;20048;-73
2023/08/02 05:07:00;;;;;;;6.47;2.22;;;;;;;-145.00;61.65;72691.13;5049578;28;20749;-73
2023/08/02 05:09:27;;;;;;;4.50;2.10;;;;;;;-145.00;61.54;72695.28;5047581;28;20049;-74
2023/08/02 05:11:54;;;;;;;5.20;2.10;;;;;;;-145.00;61.65;72693.22;5049153;28;20060;-74
2023/08/02 05:14:21;;;;;;;4.85;2.05;;;;;;;-145.00;61.65;72689.06;5049538;28;20052;-74
2023/08/02 05:16:47;;;;;;;3.38;1.95;;;;;;;-145.00;61.51;72680.72;5052493;28;20720;-74
2023/08/02 05:19:14;;;;;;;6.53;2.13;;;;;;;-145.00;61.65;72676.56;5052006;28;20049;-74
2023/08/02 05:21:42;;;;;;;3.95;2.28;;;;;;;-145.00;61.50;72662.00;5052926;28;20056;-73
2023/08/02 05:24:08;;;;;;;4.43;2.40;;;;;;;-145.00;61.48;72664.06;5051923;28;20049;-74
2023/08/02 05:26:35;;;;;;;3.60;2.08;;;;;;;-145.00;61.49;72657.81;5052828;28;20071;-74
2023/08/02 05:29:01;;;;;;;3.42;2.05;;;;;;;-145.00;61.27;72662.00;5052820;28;20047;-73
2023/08/02 05:31:28;;;;;;;2.80;2.00;;;;;;;-145.00;60.98;72664.06;5052456;28;20497;-74
2023/08/02 05:33:54;;;;;;;4.47;2.13;;;;;;;-145.00;60.95;72657.81;5052970;28;20119;-74
2023/08/02 05:36:21;;;;;;;3.55;1.83;;;;;;;-145.00;61.08;72651.59;5052598;28;20041;-74
2023/08/02 05:38:48;;;;;;;4.63;2.25;;;;;;;-145.00;61.34;72641.16;5051226;28;20524;-74
2023/08/02 05:41:15;;;;;;;4.47;2.40;;;;;;;-145.00;61.17;72634.94;5052297;28;20060;-73
2023/08/02 05:43:44;;;;;;;3.78;2.13;;;;;;;-145.00;60.85;72622.44;5052976;28;20048;-73
2023/08/02 05:46:11;;;;;;;5.07;1.95;;;;;;;-145.00;60.31;72616.19;5052324;28;20056;-74
2023/08/02 05:48:37;;;;;;;3.65;2.13;;;;;;;-145.00;60.03;72622.44;5052968;28;20045;-73
2023/08/02 05:51:04;;;;;;;3.30;1.80;;;;;;;-145.00;59.78;72605.78;5052062;28;20053;-73
2023/08/02 05:53:30;;;;;;;4.38;1.98;;;;;;;-145.00;59.77;72597.47;5054696;28;20052;-73
2023/08/02 05:55:58;;;;;;;8.10;2.70;;;;;;;-145.00;59.65;72601.63;5054479;28;20520;-74
2023/08/02 05:58:24;;;;;;;4.65;2.10;;;;;;;-145.00;59.79;72576.63;5053512;28;20041;-74
2023/08/02 06:00:51;;;;;;;3.28;1.92;;;;;;;-145.00;59.77;72568.31;5054017;28;20520;-73
2023/08/02 06:03:17;;;;;;;4.93;2.35;;;;;;;-145.00;59.70;72551.66;5052394;28;20045;-74
2023/08/02 06:05:44;;;;;;;7.22;2.35;;;;;;;-145.00;60.58;72589.13;5052724;28;20059;-74
2023/08/02 06:08:10;;;;;;;4.43;2.40;;;;;;;-145.00;60.47;72572.47;5050152;28;20392;-73
2023/08/02 06:10:37;;;;;;;4.30;1.90;;;;;;;-145.00;60.17;72539.16;5053820;28;20049;-74
2023/08/02 06:13:05;;;;;;;4.88;2.10;;;;;;;-145.00;60.20;72547.50;5052839;28;20053;-73
2023/08/02 06:15:31;;;;;;;3.38;1.98;;;;;;;-145.00;60.34;72547.50;5053703;28;20037;-73
2023/08/02 06:17:58;;;;;;;6.15;2.20;;;;;;;-145.00;60.12;72578.72;5053375;28;20060;-73
2023/08/02 06:20:24;;;;;;;3.63;2.33;;;;;;;-145.00;61.15;72593.28;5053029;28;20037;-74
2023/08/02 06:22:51;;;;;;;4.50;1.60;;;;;;;-145.00;59.47;72543.34;5053782;28;20048;-74
2023/08/02 06:25:18;;;;;;;4.07;1.67;;;;;;;-145.00;59.60;72572.47;5052620;28;20485;-73
2023/08/02 06:27:44;;;;;;;4.65;1.70;;;;;;;-145.00;59.48;72545.41;5057702;28;20059;-74
2023/08/02 06:30:12;;;;;;;3.38;1.60;;;;;;;-145.00;59.00;72530.84;5060699;28;20048;-74
2023/08/02 06:32:39;;;;;;;3.80;1.85;;;;;;;-145.00;59.15;72516.28;5058194;28;20088;-74
2023/08/02 06:35:06;;;;;;;2.75;1.67;;;;;;;-145.00;59.28;72501.69;5059423;28;20037;-74
2023/08/02 06:37:33;;;;;;;3.15;1.77;;;;;;;-145.00;58.57;72489.22;5059105;28;20045;-74
2023/08/02 06:39:59;;;;;;;3.50;1.80;;;;;;;-145.00;58.61;72482.97;5055865;28;20405;-74
2023/08/02 06:42:26;;;;;;;3.13;1.83;;;;;;;-145.00;59.03;72480.88;5057392;28;20067;-74
2023/08/02 06:44:52;;;;;;;3.03;1.63;;;;;;;-145.00;58.38;72472.56;5058105;28;20052;-74
2023/08/02 06:47:20;;;;;;;3.45;2.05;;;;;;;-145.00;58.74;72480.88;5057654;28;20051;-74
2023/08/02 06:49:47;;;;;;;3.58;1.80;;;;;;;-145.00;58.50;72505.88;5048718;28;20079;-74
2023/08/02 06:52:13;;;;;;;4.53;1.58;;;;;;;-145.00;58.70;72497.53;5050908;28;20048;-74
2023/08/02 06:54:40;;;;;;;7.95;2.05;;;;;;;-145.00;59.31;72499.63;5050534;28;20049;-74
2023/08/02 06:57:08;;;;;;;8.30;2.00;;;;;;;-145.00;59.56;72545.41;5050912;28;20057;-75
2023/08/02 06:59:35;;;;;;;5.38;1.83;;;;;;;-145.00;60.99;72551.66;5051354;28;20045;-74
2023/08/02 07:02:01;;;;;;;2.42;1.52;;;;;;;-145.00;60.73;72545.41;5050965;28;20427;-74
2023/08/02 07:04:29;;;;;;;3.72;1.70;;;;;;;-145.00;60.65;72543.34;5050209;28;20041;-74
2023/08/02 07:06:55;;;;;;;2.28;1.60;;;;;;;-145.00;61.37;72530.84;5050487;28;20435;-73
2023/08/02 07:09:22;;;;;;;3.05;1.80;;;;;;;-145.00;62.28;72545.41;5038846;28;20524;-73
2023/08/02 07:11:48;;;;;;;2.47;1.60;;;;;;;-145.00;62.87;72576.63;5050024;28;20072;-73
2023/08/02 07:14:15;;;;;;;5.22;1.95;;;;;;;-145.00;63.22;72576.63;5050193;28;20041;-73
2023/08/02 07:16:41;;;;;;;3.65;2.00;;;;;;;-145.00;65.40;72597.47;5050723;28;20053;-73
2023/08/02 07:19:08;;;;;;;5.88;1.75;;;;;;;-145.00;66.32;72626.59;5049421;28;20071;-73
2023/08/02 07:21:36;;;;;;;3.25;1.80;;;;;;;-145.00;67.22;72662.00;5050108;28;20047;-73
2023/08/02 07:24:02;;;;;;;4.60;2.05;;;;;;;-145.00;67.30;72639.09;5049644;28;20059;-72
2023/08/02 07:26:28;;;;;;;5.07;2.08;;;;;;;-145.00;67.84;72639.09;5050105;28;20049;-73
2023/08/02 07:28:55;;;;;;;3.85;1.92;;;;;;;-145.00;68.76;72637.00;5050089;28;20068;-73
2023/08/02 07:31:21;;;;;;;4.05;2.22;;;;;;;-145.00;69.80;72614.09;5049226;28;20059;-73
2023/08/02 07:33:48;;;;;;;5.50;1.92;;;;;;;-145.00;70.39;72620.34;5049941;28;20056;-73
2023/08/02 07:36:16;;;;;;;3.58;1.90;;;;;;;-145.00;69.67;72653.66;5049554;28;20131;-73
2023/08/02 07:38:45;;;;;;;2.78;1.98;;;;;;;-145.00;71.71;72641.16;5046902;28;20072;-73
2023/08/02 07:41:12;;;;;;;5.88;2.33;;;;;;;-145.00;72.30;72649.50;5048967;28;20049;-73
2023/08/02 07:43:39;;;;;;;4.07;2.00;;;;;;;-145.00;72.07;72637.00;5050055;28;20053;-73
2023/08/02 07:46:06;;;;;;;3.10;1.80;;;;;;;-145.00;71.92;72609.94;5049572;28;20045;-73
2023/08/02 07:48:33;;;;;;;2.70;1.80;;;;;;;-145.00;71.50;72595.38;5049895;28;20141;-73
2023/08/02 07:51:04;;;;;;;5.57;1.83;;;;;;;-145.00;70.23;72655.75;5049821;28;20045;-73
2023/08/02 07:53:31;;;;;;;3.70;1.98;;;;;;;-145.00;71.15;72647.41;5049394;28;20063;-73
2023/08/02 07:56:02;;;;;;;5.15;1.90;;;;;;;-145.00;71.49;72645.34;5031883;28;20404;-74
2023/08/02 07:58:29;;;;;;;4.43;2.13;;;;;;;-145.00;71.65;72620.34;5049409;28;20051;-74
2023/08/02 08:00:55;;;;;;;4.32;2.13;;;;;;;-145.00;71.13;72630.75;5049864;28;20072;-74
2023/08/02 08:03:22;;;;;;;5.25;2.38;;;;;;;-145.00;70.70;72626.59;5048973;28;20052;-73
2023/08/02 08:05:49;;;;;;;6.80;2.10;;;;;;;-145.00;71.11;72622.44;5049475;28;20055;-73
2023/08/02 08:08:15;;;;;;;26.88;24.20;;;;;;;-145.00;70.31;72620.34;5045688;28;20081;-73
2023/08/02 08:10:42;;;;;;;4.22;2.35;;;;;;;-145.00;69.95;72618.28;5049927;28;20049;-73
2023/08/02 08:13:10;;;;;;;5.25;2.25;;;;;;;-145.00;71.12;72628.69;5050174;28;20048;-73
2023/08/02 08:15:36;;;;;;;4.70;2.28;;;;;;;-145.00;71.48;72607.88;5050008;28;20053;-74
2023/08/02 08:18:03;;;;;;;7.53;2.40;;;;;;;-145.00;72.19;72626.59;5048901;28;20045;-73
2023/08/02 08:20:30;;;;;;;5.20;2.22;;;;;;;-145.00;72.30;72605.78;5049350;28;20051;-74
2023/08/02 08:22:56;;;;;;;4.13;2.40;;;;;;;-145.00;71.27;72624.53;5049578;28;20051;-73
2023/08/02 08:25:23;;;;;;;3.17;2.20;;;;;;;-145.00;71.10;72607.88;5049014;28;20124;-73
2023/08/02 08:27:49;;;;;;;4.15;2.13;;;;;;;-145.00;71.74;72628.69;5049802;28;20052;-74
2023/08/02 08:30:17;;;;;;;10.05;3.42;;;;;;;-145.00;72.12;72609.94;5050500;28;20049;-73
2023/08/02 08:32:44;;;;;;;5.28;2.33;;;;;;;-145.00;72.43;72601.63;5035416;28;20045;-74
2023/08/02 08:35:10;;;;;;;6.50;2.40;;;;;;;-145.00;74.03;72612.03;5052924;28;20214;-74
2023/08/02 08:37:37;;;;;;;4.70;2.90;;;;;;;-145.00;73.48;72609.94;5052862;28;20047;-74
2023/08/02 08:40:04;;;;;;;4.97;2.42;;;;;;;-145.00;72.18;72560.00;5048971;28;20045;-73
2023/08/02 08:42:31;;;;;;;4.90;2.63;;;;;;;-145.00;71.99;72549.56;5052862;28;20049;-73
2023/08/02 08:44:58;;;;;;;6.30;2.50;;;;;;;-145.00;70.82;72572.47;5053121;28;20053;-74
2023/08/02 08:47:28;;;;;;;6.63;2.78;;;;;;;-145.00;70.17;72564.16;5052273;28;20037;-74
2023/08/02 08:49:59;;;;;;;5.60;2.47;;;;;;;-145.00;71.88;72549.56;5052682;28;20053;-74
2023/08/02 08:52:32;;;;;;;3.90;2.28;;;;;;;-145.00;70.71;72524.59;5052354;28;20041;-74
2023/08/02 08:55:00;;;;;;;2.63;1.63;;;;;;;-145.00;70.82;72543.34;5052784;28;20037;-73
2023/08/02 08:57:27;;;;;;;3.90;2.35;;;;;;;-145.00;71.04;72539.16;5052500;28;20127;-74
2023/08/02 08:59:54;;;;;;;4.78;2.65;;;;;;;-145.00;70.80;72530.84;5047251;28;20042;-74
2023/08/02 09:02:21;;;;;;;3.70;2.60;;;;;;;-145.00;70.70;72564.16;5050374;28;20044;-73
2023/08/02 09:04:50;;;;;;;4.88;2.45;;;;;;;-145.00;72.67;72572.47;5052126;28;20049;-74
2023/08/02 09:07:16;;;;;;;4.30;2.30;;;;;;;-145.00;73.21;72572.47;5052474;28;20055;-73
2023/08/02 09:09:43;;;;;;;4.35;2.67;;;;;;;-145.00;71.32;72576.63;5048182;28;20083;-73
2023/08/02 09:12:09;;;;;;;5.70;2.65;;;;;;;-145.00;70.93;72555.81;5051821;28;20053;-73
2023/08/02 09:14:36;;;;;;;4.25;2.60;;;;;;;-145.00;72.39;72555.81;5051828;28;20053;-73
2023/08/02 09:17:04;;;;;;;5.00;2.60;;;;;;;-145.00;70.27;72551.66;5051907;28;20542;-73
2023/08/02 09:19:32;;;;;;;3.97;2.97;;;;;;;-145.00;71.10;72551.66;5052540;28;20048;-74
2023/08/02 09:22:11;;;;;;;3.83;2.60;;;;;;;-145.00;70.46;72537.09;5051994;28;20153;-75
2023/08/02 09:24:38;;;;;;;5.38;3.00;;;;;;;-145.00;71.30;72537.09;5052186;28;20055;-74
2023/08/02 09:27:06;;;;;;;4.30;2.45;;;;;;;-145.00;69.55;72535.00;5051632;28;20084;-73
2023/08/02 09:29:49;;;;;;;4.20;2.72;;;;;;;-145.00;71.24;72516.28;5052004;28;20131;-74
2023/08/02 09:32:17;;;;;;;4.05;2.78;;;;;;;-145.00;71.66;72547.50;5051542;28;20592;-74
2023/08/02 09:34:45;;;;;;;4.75;2.83;;;;;;;-145.00;73.27;72566.22;5052204;28;20045;-74
2023/08/02 09:37:15;;;;;;;4.82;3.00;;;;;;;-145.00;74.44;72543.34;5051888;28;20053;-73
2023/08/02 09:39:49;;;;;;;4.55;3.05;;;;;;;-145.00;73.08;72522.53;5047064;28;20079;-74
2023/08/02 09:42:17;;;;;;;5.10;2.65;;;;;;;-145.00;72.70;72495.47;5050319;28;20048;-74
2023/08/02 09:44:51;;;;;;;5.80;3.30;;;;;;;-145.00;72.95;72489.22;5051889;28;20049;-74
2023/08/02 09:47:18;;;;;;;5.25;2.92;;;;;;;-145.00;73.33;72474.63;5051382;28;20052;-73
2023/08/02 09:49:45;;;;;;;7.05;2.80;;;;;;;-145.00;72.35;72472.56;5051971;28;20053;-74
2023/08/02 09:52:26;;;;;;;5.43;2.92;;;;;;;-145.00;72.05;72480.88;5051054;28;20045;-73
2023/08/02 09:54:54;;;;;;;5.00;2.65;;;;;;;-145.00;71.31;72485.06;5051839;28;20045;-74
2023/08/02 09:57:22;;;;;;;4.97;2.95;;;;;;;-145.00;71.99;72474.63;5051284;28;20056;-74
2023/08/02 09:59:49;;;;;;;5.95;3.10;;;;;;;-145.00;72.25;72458.00;5051598;28;20053;-75
2023/08/02 10:02:17;;;;;;;7.35;3.40;;;;;;;-145.00;73.10;72451.75;5051123;28;20059;-75
2023/08/02 10:04:44;;;;;;;5.10;3.00;;;;;;;-145.00;73.24;72447.59;5051950;28;20053;-75
2023/08/02 10:07:15;;;;;;;4.70;2.90;;;;;;;-145.00;72.22;72433.00;5051451;28;20094;-74
2023/08/02 10:09:43;;;;;;;5.20;2.70;;;;;;;-145.00;74.44;72472.56;5046080;28;20069;-74
2023/08/02 10:12:16;;;;;;;6.30;3.50;;;;;;;-145.00;74.56;72468.41;5050588;28;20056;-73
2023/08/02 10:14:42;;;;;;;;;;;;;;;-145.00;72.52;72476.72;5051989;28;20048;-74
2023/08/02 10:17:10;;;;;;;5.55;2.90;;;;;;;-145.00;74.75;72493.38;5050965;28;19920;-75
2023/08/02 10:19:37;;;;;;;5.82;2.63;;;;;;;-145.00;75.02;72514.19;5051922;28;20063;-74
2023/08/02 10:22:04;;;;;;;5.93;2.92;;;;;;;-145.00;75.07;72501.69;5050683;28;20045;-73
2023/08/02 10:24:31;;;;;;;5.97;3.53;;;;;;;-145.00;74.16;72472.56;5051408;28;20048;-74
2023/08/02 10:26:59;;;;;;;4.22;2.72;;;;;;;-145.00;74.60;72472.56;5051540;28;20045;-74
2023/08/02 10:29:29;;;;;;;4.45;2.75;;;;;;;-145.00;75.12;72464.22;5051036;28;20132;-74
2023/08/02 10:31:56;;;;;;;5.97;3.55;;;;;;;-145.00;75.63;72451.75;5051273;28;20051;-74
2023/08/02 10:34:46;;;;;;;5.70;3.50;;;;;;;-145.00;74.94;72453.81;5051154;28;20489;-74
2023/08/02 10:37:12;;;;;;;6.32;3.92;;;;;;;-145.00;75.59;72460.06;5050928;28;20057;-74
2023/08/02 10:39:52;;;;;;;6.45;4.03;;;;;;;-145.00;76.06;72455.91;5045651;28;20488;-74
2023/08/02 10:42:20;;;;;;;8.13;4.20;;;;;;;-145.00;76.23;72455.91;5050599;28;20049;-74
2023/08/02 10:45:14;;;;;;;5.30;3.17;;;;;;;-145.00;76.31;72460.06;5051442;28;20528;-75
2023/08/02 10:47:41;;;;;;;10.18;7.18;;;;;;;-145.00;76.71;72468.41;5036713;28;20053;-74
2023/08/02 10:50:08;;;;;;;7.82;3.60;;;;;;;-145.00;77.15;72476.72;5050436;28;20049;-74
2023/08/02 10:52:36;;;;;;;5.32;3.40;;;;;;;-145.00;77.50;72468.41;5050332;28;20044;-74
2023/08/02 10:55:08;;;;;;;8.07;3.78;;;;;;;-145.00;79.06;72451.75;5049909;28;20052;-74
2023/08/02 10:57:35;;;;;;;5.78;3.70;;;;;;;-145.00;79.97;72422.59;5050544;28;20090;-75
2023/08/02 11:00:15;;;;;;;5.20;3.70;;;;;;;-145.00;80.44;72403.88;5050492;28;20049;-74
2023/08/02 11:02:47;;;;;;;4.95;3.58;;;;;;;-145.00;81.52;72455.91;5051461;28;20044;-76
2023/08/02 11:05:18;;;;;;;6.75;4.30;;;;;;;-145.00;83.55;72472.56;5052241;28;20045;-77
2023/08/02 11:07:57;;;;;;;7.75;4.75;;;;;;;-145.00;83.42;72414.28;5051084;28;20137;-76
2023/08/02 11:10:24;;;;;;;6.93;4.57;;;;;;;-145.00;83.09;72387.22;5040369;28;20107;-76
2023/08/02 11:12:52;;;;;;;7.18;4.57;;;;;;;-145.00;82.72;72364.31;5051217;28;20059;-76
2023/08/02 11:15:21;;;;;;;6.40;4.57;;;;;;;-145.00;81.80;72335.19;5052044;28;20052;-76
2023/08/02 11:17:47;;;;;;;6.20;4.15;;;;;;;-145.00;80.50;72318.53;5053572;28;20452;-77